Time;durP1;ratioP1;P1;durP2;ratioP2;P2;SDS_P1;SDS_P2;PMS_P1;PMS_P2;Temp;Humidity;BMP_temperature;BMP_pressure;BME280_temperature;BME280_humidity;BME280_pressure;Samples;Min_cycle;Max_cycle;Signal;HPM_P1;HPM_P2
2024/01/16 00:02:08;;;;;;;24.70;11.30;;;;;;;9.63;67.19;99425.11;105661;1257;71347;-63
2024/01/16 00:04:40;;;;;;;25.00;11.50;;;;;;;9.61;67.14;99425.86;105577;1257;60487;-61
2024/01/16 00:07:09;;;;;;;21.90;12.30;;;;;;;9.58;67.00;99422.44;105618;1250;60487;-60
2024/01/16 00:09:37;;;;;;;23.60;11.20;;;;;;;9.55;66.95;99409.21;105576;1260;73946;-59
2024/01/16 00:12:06;;;;;;;19.30;10.30;;;;;;;9.54;66.89;99404.00;105486;1257;72667;-60
2024/01/16 00:14:36;;;;;;;23.30;11.30;;;;;;;9.50;66.81;99401.45;105572;1251;72671;-60
2024/01/16 00:17:05;;;;;;;26.00;11.30;;;;;;;9.47;66.72;99394.00;105519;1254;60710;-62
2024/01/16 00:19:33;;;;;;;18.40;11.20;;;;;;;9.45;66.64;99384.44;105614;1256;60437;-61
2024/01/16 00:22:02;;;;;;;22.10;12.20;;;;;;;9.43;66.63;99384.84;105561;1256;72800;-61
2024/01/16 00:24:30;;;;;;;21.80;11.70;;;;;;;9.40;66.68;99378.63;105259;1254;71603;-61
2024/01/16 00:26:59;;;;;;;22.30;11.00;;;;;;;9.38;66.66;99373.75;105545;1255;71205;-60
2024/01/16 00:29:27;;;;;;;19.50;11.20;;;;;;;9.36;66.67;99358.06;105580;1257;60459;-61
2024/01/16 00:31:55;;;;;;;22.90;10.80;;;;;;;9.35;66.64;99356.88;105585;1257;60431;-60
2024/01/16 00:34:23;;;;;;;25.60;11.00;;;;;;;9.34;66.64;99369.65;105533;1254;72625;-60
2024/01/16 00:36:51;;;;;;;24.20;12.00;;;;;;;9.34;66.64;99369.66;105521;1254;72048;-58
2024/01/16 00:39:19;;;;;;;25.50;11.70;;;;;;;9.33;66.62;99370.39;105510;1257;70298;-59
2024/01/16 00:41:47;;;;;;;28.80;11.70;;;;;;;9.32;66.62;99375.83;105518;1256;60840;-60
2024/01/16 00:44:16;;;;;;;25.10;11.20;;;;;;;9.30;66.62;99376.58;105349;1257;60584;-60
2024/01/16 00:46:43;;;;;;;22.10;11.50;;;;;;;9.28;66.61;99375.59;105578;1252;73327;-59
2024/01/16 00:49:12;;;;;;;25.40;11.70;;;;;;;9.26;66.67;99378.09;105529;1256;72346;-60
2024/01/16 00:51:40;;;;;;;25.90;11.40;;;;;;;9.25;66.64;99385.44;105535;1257;71450;-60
2024/01/16 00:54:08;;;;;;;20.90;10.60;;;;;;;9.24;66.58;99387.94;105535;1258;61145;-59
2024/01/16 00:56:36;;;;;;;25.10;11.80;;;;;;;9.23;66.57;99374.81;105533;1257;60479;-62
2024/01/16 00:59:04;;;;;;;24.00;12.30;;;;;;;9.22;66.67;99366.64;105217;1261;72636;-61
2024/01/16 01:01:32;;;;;;;21.60;10.00;;;;;;;9.20;66.69;99365.98;105526;1257;72856;-60
2024/01/16 01:04:00;;;;;;;24.70;11.30;;;;;;;9.20;66.79;99364.42;105195;1254;71428;-60
2024/01/16 01:06:28;;;;;;;21.90;11.10;;;;;;;9.19;66.76;99361.45;105557;1257;60359;-60
2024/01/16 01:08:56;;;;;;;23.70;11.70;;;;;;;9.19;66.68;99365.30;105114;1257;60507;-63
2024/01/16 01:11:24;;;;;;;21.60;10.90;;;;;;;9.19;66.63;99357.08;105540;1252;72680;-63
2024/01/16 01:13:52;;;;;;;17.10;10.80;;;;;;;9.17;66.74;99356.42;105211;1260;72817;-62
2024/01/16 01:16:20;;;;;;;23.30;12.40;;;;;;;9.17;66.69;99360.81;105524;1257;73331;-62
2024/01/16 01:18:48;;;;;;;28.50;12.50;;;;;;;9.16;66.59;99359.95;105267;1257;60446;-62
2024/01/16 01:21:16;;;;;;;27.90;11.60;;;;;;;9.16;66.63;99363.62;105602;1251;60412;-63
2024/01/16 01:23:44;;;;;;;20.50;11.30;;;;;;;9.15;66.73;99359.97;105231;1258;72658;-62
2024/01/16 01:26:17;;;;;;;21.60;10.20;;;;;;;9.16;66.77;99360.65;105585;1257;71583;-62
2024/01/16 01:28:46;;;;;;;21.20;10.40;;;;;;;9.17;66.84;99360.10;105431;1257;71426;-63
2024/01/16 01:31:13;;;;;;;23.10;11.40;;;;;;;9.19;66.84;99368.63;105392;1260;60441;-63
2024/01/16 01:33:42;;;;;;;18.10;11.20;;;;;;;9.20;66.84;99366.14;105362;1253;60435;-63
2024/01/16 01:36:10;;;;;;;16.90;10.90;;;;;;;9.22;66.82;99367.85;105131;1257;73890;-63
2024/01/16 01:38:37;;;;;;;20.00;9.50;;;;;;;9.23;66.80;99363.45;105464;1254;71625;-63
2024/01/16 01:41:05;;;;;;;19.50;10.90;;;;;;;9.23;66.76;99356.80;105299;1254;71432;-63
2024/01/16 01:43:35;;;;;;;17.40;10.90;;;;;;;9.25;66.69;99354.84;105481;1260;60564;-64
2024/01/16 01:46:12;;;;;;;20.30;11.10;;;;;;;9.27;66.72;99355.33;105195;1260;60536;-65
2024/01/16 01:48:41;;;;;;;14.00;10.20;;;;;;;9.27;66.68;99353.56;105362;1257;72718;-65
2024/01/16 01:51:13;;;;;;;17.00;10.40;;;;;;;9.27;66.66;99356.70;105343;1259;73446;-63
2024/01/16 01:53:42;;;;;;;19.30;10.40;;;;;;;9.28;66.53;99356.17;105320;1257;71851;-61
2024/01/16 01:56:18;;;;;;;20.60;10.50;;;;;;;9.29;66.51;99354.38;105491;1260;60541;-60
2024/01/16 01:58:47;;;;;;;20.40;10.50;;;;;;;9.30;66.50;99352.60;105142;1260;60385;-60
2024/01/16 02:01:16;;;;;;;20.50;10.40;;;;;;;9.30;66.47;99361.88;105428;1259;73913;-60
2024/01/16 02:03:45;;;;;;;16.00;10.10;;;;;;;9.31;66.43;99361.85;104920;1260;71503;-60
2024/01/16 02:06:13;;;;;;;22.50;10.40;;;;;;;9.34;66.37;99357.59;105362;1259;72734;-63
2024/01/16 02:08:41;;;;;;;21.60;10.70;;;;;;;9.37;66.21;99359.44;105485;1260;60456;-65
2024/01/16 02:11:09;;;;;;;17.50;10.80;;;;;;;9.38;66.16;99360.10;105406;1259;60884;-63
2024/01/16 02:13:37;;;;;;;19.10;10.50;;;;;;;9.39;66.06;99369.54;105389;1253;73068;-66
2024/01/16 02:16:05;;;;;;;22.30;10.90;;;;;;;9.39;66.00;99377.23;105203;1259;71592;-66
2024/01/16 02:18:33;;;;;;;20.40;9.80;;;;;;;9.38;65.91;99378.46;105339;1259;71144;-68
2024/01/16 02:21:04;;;;;;;17.20;9.70;;;;;;;9.37;65.84;99385.50;105316;1257;61710;-62
2024/01/16 02:23:31;;;;;;;19.50;10.80;;;;;;;9.36;65.94;99385.01;105457;1254;60440;-61
2024/01/16 02:25:59;;;;;;;18.00;10.20;;;;;;;9.35;65.89;99385.90;105370;1258;72888;-59
2024/01/16 02:28:27;;;;;;;20.40;11.10;;;;;;;9.36;65.86;99394.13;105462;1257;71870;-60
2024/01/16 02:30:55;;;;;;;18.90;9.70;;;;;;;9.36;65.60;99397.42;105249;1260;71450;-61
2024/01/16 02:33:23;;;;;;;20.70;11.40;;;;;;;9.37;65.47;99399.34;105378;1258;60381;-62
2024/01/16 02:35:51;;;;;;;15.50;9.10;;;;;;;9.37;65.10;99398.64;105112;1252;60492;-62
2024/01/16 02:38:19;;;;;;;20.10;9.80;;;;;;;9.36;64.80;99401.13;105227;1260;73095;-59
2024/01/16 02:40:47;;;;;;;15.60;9.50;;;;;;;9.34;64.28;99382.61;105250;1255;70713;-61
2024/01/16 02:43:14;;;;;;;15.10;9.30;;;;;;;9.32;63.86;99376.52;105289;1254;71156;-62
2024/01/16 02:45:42;;;;;;;16.60;10.10;;;;;;;9.29;63.45;99382.21;105328;1254;60509;-62
2024/01/16 02:48:11;;;;;;;16.90;10.20;;;;;;;9.23;63.08;99376.23;105462;1255;60346;-60
2024/01/16 02:50:41;;;;;;;17.30;10.20;;;;;;;9.16;62.82;99372.91;105212;1259;73866;-61
2024/01/16 02:53:09;;;;;;;18.60;11.60;;;;;;;9.08;62.63;99377.81;105381;1254;71572;-63
2024/01/16 02:55:37;;;;;;;17.80;11.10;;;;;;;9.00;62.30;99372.06;105353;1260;71829;-62
2024/01/16 02:58:05;;;;;;;16.80;11.40;;;;;;;8.92;61.94;99372.60;105376;1267;60422;-62
2024/01/16 03:00:33;;;;;;;15.10;10.00;;;;;;;8.83;61.71;99371.58;105360;1258;60478;-61
2024/01/16 03:03:01;;;;;;;16.50;10.20;;;;;;;8.75;61.65;99372.81;105384;1260;73793;-62
2024/01/16 03:05:29;;;;;;;13.30;9.40;;;;;;;8.70;61.50;99366.45;105313;1260;72806;-63
2024/01/16 03:07:57;;;;;;;15.80;9.90;;;;;;;8.64;61.35;99361.52;105135;1259;71556;-61
2024/01/16 03:10:24;;;;;;;14.60;9.20;;;;;;;8.58;61.17;99356.94;105337;1260;60395;-59
2024/01/16 03:12:52;;;;;;;16.70;10.00;;;;;;;8.51;61.07;99358.66;105366;1259;60539;-61
2024/01/16 03:15:20;;;;;;;12.60;9.20;;;;;;;8.43;60.91;99358.30;105414;1255;73336;-58
2024/01/16 03:17:49;;;;;;;13.30;9.40;;;;;;;8.36;60.94;99354.59;105380;1260;72845;-61
2024/01/16 03:20:18;;;;;;;12.80;8.90;;;;;;;8.30;60.89;99350.51;105406;1258;71655;-60
2024/01/16 03:22:47;;;;;;;15.80;9.40;;;;;;;8.24;60.94;99348.54;105525;1260;60454;-59
2024/01/16 03:25:18;;;;;;;16.50;8.80;;;;;;;8.20;60.89;99350.36;105351;1260;60508;-60
2024/01/16 03:27:47;;;;;;;10.60;7.90;;;;;;;8.18;60.88;99356.88;105454;1260;72592;-58
2024/01/16 03:30:15;;;;;;;12.70;8.20;;;;;;;8.18;60.81;99349.19;105502;1257;71759;-60
2024/01/16 03:32:43;;;;;;;11.70;8.50;;;;;;;8.16;60.76;99345.58;105173;1255;73160;-62
2024/01/16 03:35:11;;;;;;;13.20;8.30;;;;;;;8.12;60.69;99355.09;105653;1254;60459;-61
2024/01/16 03:37:39;;;;;;;11.50;7.70;;;;;;;8.07;60.65;99353.24;105549;1251;60536;-62
2024/01/16 03:40:12;;;;;;;12.90;8.70;;;;;;;8.03;60.64;99357.19;105198;1254;72874;-64
2024/01/16 03:42:39;;;;;;;12.70;8.50;;;;;;;7.99;60.59;99351.85;105161;1260;71603;-62
2024/01/16 03:45:08;;;;;;;10.10;7.50;;;;;;;7.98;60.58;99357.13;105463;1255;71595;-61
2024/01/16 03:47:36;;;;;;;9.90;7.20;;;;;;;7.95;61.07;99355.59;105241;1270;60453;-63
2024/01/16 03:50:04;;;;;;;8.70;7.10;;;;;;;7.91;61.06;99353.55;105539;1256;61267;-64
2024/01/16 03:52:32;;;;;;;11.50;8.70;;;;;;;7.87;61.30;99358.52;105643;1254;73914;-62
2024/01/16 03:55:00;;;;;;;9.90;7.60;;;;;;;7.82;61.12;99359.33;105521;1257;72365;-63
2024/01/16 03:57:28;;;;;;;14.60;7.40;;;;;;;7.79;60.83;99356.95;105193;1260;72791;-66
2024/01/16 03:59:56;;;;;;;9.00;6.10;;;;;;;7.74;61.41;99359.48;105414;1261;60515;-62
2024/01/16 04:02:24;;;;;;;9.20;6.00;;;;;;;7.70;61.49;99356.92;105548;1254;63171;-65
2024/01/16 04:04:52;;;;;;;7.50;5.50;;;;;;;7.69;61.13;99358.35;105513;1257;72556;-60
2024/01/16 04:07:23;;;;;;;9.70;6.60;;;;;;;7.69;60.80;99360.63;105564;1257;71597;-60
2024/01/16 04:09:51;;;;;;;8.60;6.10;;;;;;;7.69;60.61;99355.21;105501;1257;72671;-61
2024/01/16 04:12:18;;;;;;;7.60;5.90;;;;;;;7.68;60.56;99358.73;105304;1252;61857;-60
2024/01/16 04:14:46;;;;;;;8.70;6.40;;;;;;;7.66;60.33;99352.14;105539;1251;60577;-63
2024/01/16 04:17:14;;;;;;;9.20;6.60;;;;;;;7.59;60.21;99352.95;105519;1257;73872;-66
2024/01/16 04:19:42;;;;;;;10.80;6.50;;;;;;;7.53;60.25;99354.63;105583;1254;72685;-65
2024/01/16 04:22:10;;;;;;;11.10;7.10;;;;;;;7.49;60.29;99361.00;105472;1255;73436;-66
2024/01/16 04:24:39;;;;;;;9.50;7.10;;;;;;;7.42;60.24;99357.80;105574;1252;60461;-66
2024/01/16 04:27:07;;;;;;;8.90;7.60;;;;;;;7.36;60.31;99364.53;105277;1254;60476;-62
2024/01/16 04:29:36;;;;;;;10.90;7.10;;;;;;;7.33;60.38;99367.38;105604;1252;72602;-63
2024/01/16 04:32:04;;;;;;;10.80;6.90;;;;;;;7.28;60.47;99368.34;105566;1257;73110;-61
2024/01/16 04:34:32;;;;;;;7.50;6.50;;;;;;;7.23;60.52;99367.20;105524;1251;71322;-60
2024/01/16 04:37:00;;;;;;;10.30;7.90;;;;;;;7.19;60.59;99369.16;105540;1252;60509;-60
2024/01/16 04:39:28;;;;;;;13.80;8.50;;;;;;;7.15;60.67;99365.23;105508;1257;60530;-60
2024/01/16 04:41:55;;;;;;;12.40;8.30;;;;;;;7.09;60.40;99372.30;105539;1257;73987;-61
2024/01/16 04:44:23;;;;;;;11.90;8.30;;;;;;;6.99;60.36;99379.09;105566;1257;72664;-61
2024/01/16 04:46:51;;;;;;;11.30;8.90;;;;;;;6.91;60.49;99380.78;105278;1260;72738;-60
2024/01/16 04:49:18;;;;;;;13.50;9.70;;;;;;;6.87;60.56;99376.30;105492;1257;60392;-61
2024/01/16 04:51:47;;;;;;;14.90;9.60;;;;;;;6.84;60.59;99381.39;105520;1251;60495;-56
2024/01/16 04:54:15;;;;;;;13.40;9.30;;;;;;;6.80;60.48;99387.55;105584;1257;74092;-61
2024/01/16 04:56:42;;;;;;;13.60;9.40;;;;;;;6.72;60.55;99396.55;105573;1257;70307;-54
2024/01/16 04:59:10;;;;;;;14.40;10.20;;;;;;;6.65;60.61;99396.65;105525;1255;71711;-54
2024/01/16 05:01:40;;;;;;;11.70;9.40;;;;;;;6.59;60.72;99404.41;105531;1257;60418;-54
2024/01/16 05:04:10;;;;;;;13.10;9.90;;;;;;;6.51;60.60;99405.37;105559;1251;60530;-54
2024/01/16 05:06:39;;;;;;;14.70;11.10;;;;;;;6.46;60.62;99396.73;105517;1257;72719;-53
2024/01/16 05:09:09;;;;;;;14.50;10.30;;;;;;;6.37;60.55;99400.86;105070;1264;72340;-58
2024/01/16 05:11:36;;;;;;;13.80;10.40;;;;;;;6.26;60.58;99400.80;105537;1251;72129;-58
2024/01/16 05:14:06;;;;;;;16.20;10.30;;;;;;;6.17;60.65;99402.83;105533;1251;61025;-58
2024/01/16 05:16:34;;;;;;;16.30;11.30;;;;;;;6.09;60.72;99405.90;105570;1251;60533;-65
2024/01/16 05:19:02;;;;;;;15.30;10.70;;;;;;;6.02;60.88;99408.59;105533;1256;74479;-62
2024/01/16 05:21:30;;;;;;;14.10;10.70;;;;;;;5.96;60.94;99420.81;105586;1257;70771;-65
2024/01/16 05:23:57;;;;;;;13.10;10.20;;;;;;;5.89;61.06;99425.73;105556;1257;72723;-61
2024/01/16 05:26:26;;;;;;;13.90;11.00;;;;;;;5.84;61.17;99426.66;105506;1258;60428;-63
2024/01/16 05:28:54;;;;;;;15.00;11.40;;;;;;;5.80;61.21;99433.33;105525;1258;60904;-60
2024/01/16 05:31:22;;;;;;;13.80;11.00;;;;;;;5.74;61.34;99434.93;105094;1264;73985;-61
2024/01/16 05:33:50;;;;;;;16.40;11.80;;;;;;;5.70;61.55;99444.38;105636;1257;72997;-67
2024/01/16 05:36:18;;;;;;;14.30;11.10;;;;;;;5.67;62.95;99448.23;105522;1257;72192;-63
2024/01/16 05:38:46;;;;;;;14.00;11.20;;;;;;;5.65;63.54;99453.29;105491;1257;60389;-61
2024/01/16 05:41:14;;;;;;;16.50;12.20;;;;;;;5.63;63.67;99458.52;105466;1258;60562;-62
2024/01/16 05:43:42;;;;;;;15.10;11.90;;;;;;;5.61;63.53;99450.71;105520;1255;74928;-62
2024/01/16 05:46:10;;;;;;;16.30;11.20;;;;;;;5.56;63.31;99450.05;105572;1254;72854;-63
2024/01/16 05:48:38;;;;;;;13.10;10.70;;;;;;;5.53;63.13;99443.30;105492;1257;71943;-63
2024/01/16 05:51:07;;;;;;;14.50;11.30;;;;;;;5.50;63.10;99457.95;105633;1257;60450;-65
2024/01/16 05:53:35;;;;;;;12.50;9.90;;;;;;;5.48;62.85;99468.73;105613;1254;60526;-62
2024/01/16 05:56:03;;;;;;;13.00;9.90;;;;;;;5.44;62.87;99475.20;105596;1256;73864;-60
2024/01/16 05:58:35;;;;;;;13.40;10.30;;;;;;;5.40;62.78;99477.66;105541;1257;71325;-60
2024/01/16 06:01:05;;;;;;;11.00;9.30;;;;;;;5.35;62.76;99478.23;105627;1255;72704;-58
2024/01/16 06:03:32;;;;;;;11.60;9.00;;;;;;;5.32;62.79;99478.42;105561;1254;60536;-58
2024/01/16 06:06:01;;;;;;;10.70;8.80;;;;;;;5.31;62.74;99470.42;105555;1254;60623;-61
2024/01/16 06:08:30;;;;;;;9.80;8.40;;;;;;;5.31;62.69;99475.48;105598;1257;73339;-61
2024/01/16 06:10:58;;;;;;;8.80;7.70;;;;;;;5.27;62.68;99479.67;105611;1254;71514;-62
2024/01/16 06:13:25;;;;;;;10.30;8.20;;;;;;;5.26;62.60;99474.99;105230;1254;71491;-59
2024/01/16 06:15:53;;;;;;;8.80;7.10;;;;;;;5.27;62.54;99472.55;105602;1253;60439;-58
2024/01/16 06:18:21;;;;;;;8.60;6.50;;;;;;;5.27;62.52;99474.11;105677;1255;60626;-57
2024/01/16 06:20:49;;;;;;;8.30;6.90;;;;;;;5.29;62.57;99483.48;105264;1257;73935;-59
2024/01/16 06:23:17;;;;;;;7.40;6.60;;;;;;;5.31;62.47;99488.86;105710;1251;72916;-59
2024/01/16 06:25:45;;;;;;;7.10;6.30;;;;;;;5.33;62.21;99496.84;105754;1254;72904;-58
2024/01/16 06:28:13;;;;;;;7.50;6.40;;;;;;;5.34;62.06;99501.70;105666;1254;60396;-58
2024/01/16 06:30:41;;;;;;;8.00;6.50;;;;;;;5.35;61.98;99503.95;105436;1254;60725;-59
2024/01/16 06:33:09;;;;;;;7.40;6.10;;;;;;;5.39;62.17;99511.23;105656;1251;72602;-58
2024/01/16 06:35:37;;;;;;;8.90;6.90;;;;;;;5.47;62.99;99526.48;105683;1254;72041;-57
2024/01/16 06:38:05;;;;;;;7.30;5.70;;;;;;;5.53;63.14;99533.92;105472;1259;71458;-57
2024/01/16 06:40:33;;;;;;;7.20;6.20;;;;;;;5.57;63.08;99545.73;105683;1258;60296;-57
2024/01/16 06:43:01;;;;;;;7.70;5.70;;;;;;;5.58;62.79;99558.95;105392;1253;373199;-58
2024/01/16 06:45:31;;;;;;;8.20;6.40;;;;;;;5.60;62.63;99571.27;105359;1259;72426;-57
2024/01/16 06:47:58;;;;;;;8.10;5.90;;;;;;;5.64;62.13;99574.03;105689;1256;71551;-57
2024/01/16 06:50:26;;;;;;;6.60;5.80;;;;;;;5.66;61.86;99580.98;105682;1254;72049;-58
2024/01/16 06:52:54;;;;;;;7.20;6.20;;;;;;;5.68;61.69;99585.48;105584;1257;60479;-56
2024/01/16 06:55:25;;;;;;;9.30;6.30;;;;;;;5.69;61.51;99590.01;105640;1257;60456;-56
2024/01/16 06:57:53;;;;;;;7.70;6.50;;;;;;;5.68;61.14;99595.77;105629;1254;73327;-56
2024/01/16 07:00:22;;;;;;;6.40;5.70;;;;;;;5.68;61.15;99603.76;105671;1257;72823;-57
2024/01/16 07:02:51;;;;;;;7.00;5.60;;;;;;;5.70;60.98;99612.10;105629;1257;71636;-56
2024/01/16 07:05:19;;;;;;;8.00;6.40;;;;;;;5.72;60.88;99620.95;105709;1257;60480;-57
2024/01/16 07:07:47;;;;;;;6.70;6.00;;;;;;;5.75;60.80;99620.77;105364;1260;60982;-57
2024/01/16 07:10:18;;;;;;;7.90;6.20;;;;;;;5.76;60.68;99633.98;105648;1257;73616;-57
2024/01/16 07:12:47;;;;;;;8.70;6.60;;;;;;;5.79;60.45;99650.48;105710;1251;71401;-57
2024/01/16 07:15:15;;;;;;;7.30;6.20;;;;;;;5.80;60.29;99655.19;105706;1257;72844;-58
2024/01/16 07:17:42;;;;;;;7.00;6.10;;;;;;;5.79;60.31;99660.40;105662;1257;60408;-59
2024/01/16 07:20:11;;;;;;;8.50;7.10;;;;;;;5.79;60.27;99667.20;105693;1255;60530;-57
2024/01/16 07:22:39;;;;;;;7.00;5.70;;;;;;;5.80;60.27;99680.42;105673;1254;73879;-58
2024/01/16 07:25:07;;;;;;;7.40;5.80;;;;;;;5.83;60.15;99685.61;105355;1260;71610;-59
2024/01/16 07:27:35;;;;;;;6.50;5.80;;;;;;;5.84;59.95;99696.40;105640;1257;73238;-58
2024/01/16 07:30:06;;;;;;;9.20;6.30;;;;;;;5.86;59.94;99711.88;105694;1256;60466;-59
2024/01/16 07:32:34;;;;;;;8.00;6.30;;;;;;;5.88;59.91;99722.48;105620;1254;60745;-60
2024/01/16 07:35:06;;;;;;;6.70;5.80;;;;;;;5.88;59.74;99727.71;105678;1251;73867;-58
2024/01/16 07:37:34;;;;;;;9.20;6.70;;;;;;;5.87;59.76;99728.76;105424;1251;71860;-58
2024/01/16 07:40:01;;;;;;;8.20;6.30;;;;;;;5.86;59.70;99726.85;105633;1254;72875;-57
2024/01/16 07:42:34;;;;;;;7.90;6.50;;;;;;;5.87;59.71;99727.02;105610;1253;60543;-58
2024/01/16 07:45:04;;;;;;;7.00;6.10;;;;;;;5.89;59.73;99740.93;105614;1251;60556;-56
2024/01/16 07:47:33;;;;;;;10.10;6.80;;;;;;;5.91;59.65;99745.44;105298;1260;72826;-57
2024/01/16 07:50:01;;;;;;;9.60;6.00;;;;;;;5.91;59.54;99758.14;105636;1251;71416;-57
2024/01/16 07:52:33;;;;;;;8.40;5.90;;;;;;;5.91;59.47;99763.02;105692;1251;71309;-56
2024/01/16 07:55:02;;;;;;;8.50;6.50;;;;;;;5.90;59.50;99766.15;105621;1251;60520;-57
2024/01/16 07:57:33;;;;;;;7.80;5.70;;;;;;;5.90;59.48;99762.67;105655;1251;60449;-56
2024/01/16 08:00:03;;;;;;;7.20;5.90;;;;;;;5.89;59.33;99761.45;105369;1251;72903;-56
2024/01/16 08:02:34;;;;;;;8.00;5.70;;;;;;;5.88;59.25;99756.77;105634;1257;73470;-57
2024/01/16 08:05:02;;;;;;;6.60;5.70;;;;;;;5.86;59.27;99751.39;105211;1261;72758;-57
2024/01/16 08:07:31;;;;;;;7.60;5.80;;;;;;;5.83;59.29;99753.67;105383;1251;60587;-57
2024/01/16 08:09:59;;;;;;;7.50;5.80;;;;;;;5.80;59.18;99751.24;105601;1251;60517;-57
2024/01/16 08:12:27;;;;;;;6.50;5.60;;;;;;;5.78;59.11;99750.55;105697;1251;72610;-57
2024/01/16 08:14:54;;;;;;;8.00;6.20;;;;;;;5.76;59.09;99743.25;105608;1254;72847;-57
2024/01/16 08:17:23;;;;;;;7.40;6.00;;;;;;;5.75;59.10;99735.77;105670;1251;71329;-57
2024/01/16 08:19:50;;;;;;;9.30;6.50;;;;;;;5.75;59.13;99729.50;105757;1251;60513;-57
2024/01/16 08:22:19;;;;;;;7.20;6.20;;;;;;;5.75;59.13;99741.69;105612;1251;60472;-57
2024/01/16 08:24:49;;;;;;;6.70;5.80;;;;;;;5.76;59.12;99754.38;105648;1256;74145;-58
2024/01/16 08:27:19;;;;;;;8.60;6.80;;;;;;;5.77;59.15;99765.00;105696;1256;72398;-57
2024/01/16 08:29:49;;;;;;;9.70;6.60;;;;;;;5.78;59.12;99779.79;105676;1251;72875;-57
2024/01/16 08:32:17;;;;;;;9.40;6.40;;;;;;;5.80;59.25;99785.36;105633;1256;60421;-57
2024/01/16 08:34:45;;;;;;;7.20;6.00;;;;;;;5.83;59.18;99800.13;105671;1251;60587;-57
2024/01/16 08:37:14;;;;;;;7.50;6.30;;;;;;;5.88;59.11;99806.19;105670;1251;72613;-57
2024/01/16 08:39:43;;;;;;;7.00;5.60;;;;;;;5.92;58.83;99814.89;105702;1254;71618;-62
2024/01/16 08:42:11;;;;;;;7.70;5.80;;;;;;;5.95;58.75;99813.85;105738;1251;71566;-56
2024/01/16 08:44:39;;;;;;;8.60;6.30;;;;;;;5.97;58.67;99818.72;105669;1251;60478;-57
2024/01/16 08:47:07;;;;;;;9.10;7.00;;;;;;;6.01;58.46;99820.10;105665;1256;60695;-56
2024/01/16 08:49:35;;;;;;;9.20;6.30;;;;;;;6.03;58.35;99825.16;105631;1251;73953;-57
2024/01/16 08:52:05;;;;;;;7.80;6.20;;;;;;;6.05;58.27;99834.20;105605;1251;73315;-57
2024/01/16 08:54:32;;;;;;;7.20;5.90;;;;;;;6.05;58.04;99838.89;105707;1251;72072;-57
2024/01/16 08:57:00;;;;;;;6.60;6.00;;;;;;;6.05;57.73;99836.45;105582;1257;60456;-56
2024/01/16 08:59:28;;;;;;;6.80;5.90;;;;;;;6.05;57.65;99846.73;105274;1251;60528;-57
2024/01/16 09:01:57;;;;;;;8.90;5.90;;;;;;;6.06;57.46;99848.46;105376;1251;73704;-57
2024/01/16 09:04:25;;;;;;;7.60;6.40;;;;;;;6.06;57.43;99851.42;105653;1257;71651;-57
2024/01/16 09:06:53;;;;;;;8.20;6.20;;;;;;;6.07;57.40;99857.16;105593;1251;72484;-57
2024/01/16 09:09:21;;;;;;;8.10;6.60;;;;;;;6.09;57.26;99858.03;105628;1251;60526;-58
2024/01/16 09:11:49;;;;;;;9.20;6.30;;;;;;;6.11;57.36;99864.64;105670;1256;60517;-58
2024/01/16 09:14:20;;;;;;;8.70;6.90;;;;;;;6.13;57.42;99866.52;105705;1251;73907;-58
2024/01/16 09:16:47;;;;;;;9.40;6.60;;;;;;;6.16;57.40;99872.62;105653;1251;71584;-58
2024/01/16 09:19:15;;;;;;;8.60;7.40;;;;;;;6.21;57.25;99875.05;105629;1257;73287;-58
2024/01/16 09:21:43;;;;;;;9.20;7.40;;;;;;;6.24;57.12;99874.33;105697;1254;60537;-58
2024/01/16 09:24:12;;;;;;;8.80;6.70;;;;;;;6.26;56.93;99869.44;105698;1256;60529;-56
2024/01/16 09:26:40;;;;;;;10.30;7.80;;;;;;;6.29;56.74;99869.59;105610;1256;73697;-57
2024/01/16 09:29:09;;;;;;;14.60;8.20;;;;;;;6.31;56.62;99876.92;105680;1251;72947;-57
2024/01/16 09:31:38;;;;;;;10.60;7.80;;;;;;;6.34;56.63;99886.48;105235;1260;71909;-57
2024/01/16 09:34:06;;;;;;;9.60;7.40;;;;;;;6.37;56.50;99890.65;105712;1251;60976;-56
2024/01/16 09:36:36;;;;;;;9.50;7.60;;;;;;;6.40;56.52;99888.02;105647;1251;60470;-58
2024/01/16 09:39:10;;;;;;;11.50;8.20;;;;;;;6.43;56.60;99885.73;105624;1251;74911;-57
2024/01/16 09:41:39;;;;;;;11.50;8.30;;;;;;;6.47;56.40;99880.31;105638;1252;72025;-57
2024/01/16 09:44:07;;;;;;;10.90;8.40;;;;;;;6.50;56.25;99887.61;105353;1259;72284;-56
2024/01/16 09:46:37;;;;;;;11.70;9.50;;;;;;;6.55;55.96;99892.98;105552;1251;60516;-56
2024/01/16 09:49:05;;;;;;;11.60;8.20;;;;;;;6.57;55.63;99889.85;105687;1257;60427;-57
2024/01/16 09:51:33;;;;;;;9.70;7.80;;;;;;;6.60;55.49;99888.80;105692;1256;73326;-58
2024/01/16 09:54:01;;;;;;;10.70;8.70;;;;;;;6.64;55.17;99897.64;105653;1257;71475;-56
2024/01/16 09:56:29;;;;;;;9.70;7.70;;;;;;;6.67;55.00;99913.48;105251;1254;73518;-57
2024/01/16 09:59:00;;;;;;;12.40;8.60;;;;;;;6.67;54.94;99931.25;105414;1258;60559;-57
2024/01/16 10:01:28;;;;;;;11.20;8.30;;;;;;;6.70;54.74;99933.00;105099;1251;60591;-57
2024/01/16 10:03:56;;;;;;;10.60;8.30;;;;;;;6.72;54.73;99943.27;105362;1260;74456;-59
2024/01/16 10:06:24;;;;;;;9.60;7.60;;;;;;;6.75;54.70;99947.62;105350;1252;74273;-58
2024/01/16 10:08:52;;;;;;;10.70;8.00;;;;;;;6.78;54.58;99945.50;105593;1253;73064;-55
2024/01/16 10:11:21;;;;;;;12.00;8.20;;;;;;;6.82;54.40;99945.48;105618;1255;60481;-56
2024/01/16 10:13:49;;;;;;;12.40;9.00;;;;;;;6.84;54.24;99944.77;105643;1252;60369;-58
2024/01/16 10:16:18;;;;;;;10.40;8.60;;;;;;;6.88;54.31;99946.48;105687;1251;73194;-57
2024/01/16 10:18:50;;;;;;;11.30;8.70;;;;;;;6.90;54.32;99947.70;105577;1251;72159;-58
2024/01/16 10:21:21;;;;;;;12.10;8.80;;;;;;;6.92;54.28;99942.62;105653;1254;72917;-57
2024/01/16 10:23:50;;;;;;;12.10;9.30;;;;;;;6.96;54.29;99945.39;105602;1257;60533;-57
2024/01/16 10:26:18;;;;;;;11.90;9.20;;;;;;;6.97;54.18;99946.27;105445;1256;62762;-58
2024/01/16 10:28:46;;;;;;;13.30;9.40;;;;;;;6.99;54.03;99949.56;105624;1250;72091;-56
2024/01/16 10:31:14;;;;;;;17.80;9.70;;;;;;;7.00;53.81;99953.73;105279;1251;72156;-57
2024/01/16 10:33:42;;;;;;;10.70;9.10;;;;;;;7.03;53.65;99957.55;105597;1251;71449;-57
2024/01/16 10:36:16;;;;;;;12.30;10.20;;;;;;;7.07;53.48;99959.79;105670;1251;61667;-57
2024/01/16 10:38:47;;;;;;;12.40;9.60;;;;;;;7.10;53.14;99965.19;105715;1251;60428;-57
2024/01/16 10:41:16;;;;;;;11.40;9.40;;;;;;;7.12;52.88;99960.30;105694;1257;73281;-57
2024/01/16 10:43:45;;;;;;;11.90;9.40;;;;;;;7.15;52.68;99966.02;105686;1251;74108;-56
2024/01/16 10:46:17;;;;;;;12.30;10.20;;;;;;;7.19;52.63;99977.33;105291;1252;73587;-58
2024/01/16 10:49:01;;;;;;;13.30;10.00;;;;;;;7.22;52.49;99974.52;105680;1256;60805;-58
2024/01/16 10:51:30;;;;;;;12.70;10.10;;;;;;;7.26;52.26;99980.43;105669;1251;61027;-58
2024/01/16 10:54:05;;;;;;;11.30;9.20;;;;;;;7.29;51.77;99977.45;105645;1251;74300;-57
2024/01/16 10:56:33;;;;;;;11.60;9.10;;;;;;;7.31;51.67;99978.48;105704;1251;72027;-58
2024/01/16 10:59:14;;;;;;;12.30;10.00;;;;;;;7.35;51.46;99989.09;105658;1253;73068;-58
2024/01/16 11:01:43;;;;;;;16.50;10.50;;;;;;;7.39;51.13;99994.12;105610;1255;60784;-57
2024/01/16 11:04:12;;;;;;;14.10;10.70;;;;;;;7.40;50.85;100013.83;105663;1257;62883;-57
2024/01/16 11:06:42;;;;;;;13.50;10.30;;;;;;;7.38;50.50;100017.86;105710;1251;74005;-57
2024/01/16 11:09:15;;;;;;;12.40;9.90;;;;;;;7.39;50.49;100029.20;105706;1251;73116;-56
2024/01/16 11:11:45;;;;;;;17.60;9.70;;;;;;;7.40;50.37;100027.95;105269;1254;73039;-57
2024/01/16 11:14:14;;;;;;;11.00;9.30;;;;;;;7.42;50.50;100040.69;105590;1253;60402;-57
2024/01/16 11:16:42;;;;;;;11.60;8.90;;;;;;;7.50;50.52;100048.50;105635;1251;60505;-55
2024/01/16 11:19:11;;;;;;;15.60;10.30;;;;;;;7.56;50.36;100042.69;105275;1262;74233;-55
2024/01/16 11:21:59;;;;;;;15.80;10.80;;;;;;;7.63;50.88;100038.11;105591;1256;73183;-62
2024/01/16 11:24:28;;;;;;;11.40;9.20;;;;;;;7.77;55.58;100046.72;105465;1254;73236;-61
2024/01/16 11:26:55;;;;;;;12.60;9.10;;;;;;;7.90;54.53;100043.81;105598;1254;60456;-60
2024/01/16 11:29:28;;;;;;;11.60;9.40;;;;;;;7.92;53.32;100047.11;105428;1251;60857;-59
2024/01/16 11:31:57;;;;;;;14.40;9.80;;;;;;;7.94;52.20;100054.44;105611;1251;74172;-61